createdAt,value
2023-05-16T00:01:47.888Z,19.90
2023-05-16T00:04:14.720Z,19.90
2023-05-16T00:06:41.539Z,19.90
2023-05-16T00:09:08.142Z,19.90
2023-05-16T00:11:34.793Z,19.90
2023-05-16T00:14:01.554Z,19.90
2023-05-16T00:16:29.934Z,19.80
2023-05-16T00:19:00.893Z,19.80
2023-05-16T00:21:28.080Z,19.80
2023-05-16T00:23:55.002Z,19.90
2023-05-16T00:26:22.159Z,19.90
2023-05-16T00:28:48.825Z,19.80
2023-05-16T00:31:15.674Z,19.90
2023-05-16T00:33:42.512Z,19.90
2023-05-16T00:36:09.241Z,19.90
2023-05-16T00:38:35.915Z,19.80
2023-05-16T00:41:02.521Z,19.90
2023-05-16T00:43:29.146Z,19.90
2023-05-16T00:45:57.782Z,19.90
2023-05-16T00:48:24.531Z,19.80
2023-05-16T00:50:52.674Z,19.90
2023-05-16T00:53:19.878Z,19.90
2023-05-16T00:55:47.672Z,19.80
2023-05-16T00:58:14.762Z,19.80
2023-05-16T01:00:41.729Z,19.90
2023-05-16T01:03:08.836Z,19.90
2023-05-16T01:05:35.628Z,19.80
2023-05-16T01:08:02.199Z,19.80
2023-05-16T01:10:36.497Z,19.80
2023-05-16T01:13:15.631Z,19.80
2023-05-16T01:15:56.526Z,19.80
2023-05-16T01:18:29.284Z,19.80
2023-05-16T01:21:13.374Z,19.80
2023-05-16T01:24:23.446Z,19.80
2023-05-16T01:26:52.095Z,19.80
2023-05-16T01:29:19.320Z,19.80
2023-05-16T01:31:45.983Z,19.80
2023-05-16T01:34:12.693Z,19.80
2023-05-16T01:36:57.966Z,19.80
2023-05-16T01:39:34.492Z,19.70
2023-05-16T01:42:14.177Z,19.70
2023-05-16T01:44:46.636Z,19.70
2023-05-16T01:47:14.600Z,19.80
2023-05-16T01:49:47.265Z,19.80
2023-05-16T01:52:20.078Z,19.80
2023-05-16T01:54:48.950Z,19.80
2023-05-16T01:57:17.217Z,19.80
2023-05-16T01:59:44.813Z,19.80
2023-05-16T02:02:11.437Z,19.70
2023-05-16T02:04:38.098Z,19.80
2023-05-16T02:07:05.030Z,19.80
2023-05-16T02:09:31.825Z,19.80
2023-05-16T02:11:58.422Z,19.80
2023-05-16T02:14:25.794Z,19.70
2023-05-16T02:16:52.522Z,19.70
2023-05-16T02:19:19.345Z,19.70
2023-05-16T02:21:46.008Z,19.80
2023-05-16T02:24:12.622Z,19.80
2023-05-16T02:26:39.222Z,20.60
2023-05-16T02:29:06.020Z,19.80
2023-05-16T02:31:34.613Z,19.70
2023-05-16T02:34:01.983Z,19.70
2023-05-16T02:36:28.720Z,19.70
2023-05-16T02:38:55.494Z,19.70
2023-05-16T02:41:22.357Z,19.80
2023-05-16T02:43:49.552Z,19.70
2023-05-16T02:46:27.879Z,19.70
2023-05-16T02:48:54.947Z,19.70
2023-05-16T02:51:23.240Z,19.70
2023-05-16T02:53:50.422Z,19.70
2023-05-16T02:56:17.527Z,19.80
2023-05-16T02:58:47.782Z,19.70
2023-05-16T03:01:17.972Z,19.70
2023-05-16T03:03:44.989Z,19.70
2023-05-16T03:06:12.283Z,19.70
2023-05-16T03:08:38.890Z,19.70
2023-05-16T03:11:05.672Z,19.70
2023-05-16T03:13:32.999Z,19.70
2023-05-16T03:16:00.245Z,19.70
2023-05-16T03:18:26.846Z,19.70
2023-05-16T03:20:53.623Z,19.70
2023-05-16T03:23:21.019Z,19.70
2023-05-16T03:25:47.902Z,19.70
2023-05-16T03:28:16.507Z,19.70
2023-05-16T03:30:43.170Z,19.70
2023-05-16T03:33:09.884Z,19.70
2023-05-16T03:35:36.837Z,19.70
2023-05-16T03:38:04.018Z,19.70
2023-05-16T03:40:30.926Z,19.70
2023-05-16T03:42:57.813Z,19.70
2023-05-16T03:45:24.583Z,19.70
2023-05-16T03:47:51.473Z,19.60
2023-05-16T03:50:18.224Z,19.60
2023-05-16T03:52:44.869Z,19.60
2023-05-16T03:55:14.202Z,19.60
2023-05-16T03:57:44.702Z,19.60
2023-05-16T04:00:12.568Z,19.60
2023-05-16T04:02:43.905Z,19.60
2023-05-16T04:05:11.788Z,19.60
2023-05-16T04:07:38.476Z,19.60
2023-05-16T04:10:05.935Z,19.60
2023-05-16T04:12:33.015Z,19.60
2023-05-16T04:14:59.662Z,19.60
2023-05-16T04:17:26.353Z,19.60
2023-05-16T04:19:53.013Z,19.60
2023-05-16T04:22:22.401Z,19.60
2023-05-16T04:24:49.310Z,19.60
2023-05-16T04:27:16.090Z,19.60
2023-05-16T04:29:42.964Z,19.60
2023-05-16T04:32:09.601Z,19.60
2023-05-16T04:34:39.869Z,19.70
2023-05-16T04:37:08.243Z,19.70
2023-05-16T04:39:36.459Z,19.70
2023-05-16T04:42:04.198Z,19.80
2023-05-16T04:44:30.989Z,19.70
2023-05-16T04:46:57.822Z,19.70
2023-05-16T04:49:24.624Z,19.70
2023-05-16T04:51:51.361Z,19.70
2023-05-16T04:54:18.091Z,19.70
2023-05-16T04:56:44.858Z,19.70
2023-05-16T04:59:11.517Z,19.70
2023-05-16T05:01:38.231Z,19.70
2023-05-16T05:04:04.967Z,19.80
2023-05-16T05:06:31.913Z,19.70
2023-05-16T05:08:58.568Z,19.70
2023-05-16T05:11:27.104Z,19.70
2023-05-16T05:13:53.712Z,19.70
2023-05-16T05:16:20.372Z,19.70
2023-05-16T05:18:47.087Z,19.70
2023-05-16T05:21:14.174Z,19.70
2023-05-16T05:23:41.043Z,19.70
2023-05-16T05:26:07.684Z,19.70
2023-05-16T05:28:34.413Z,19.70
2023-05-16T05:31:01.015Z,19.70
2023-05-16T05:33:31.035Z,19.70
2023-05-16T05:35:57.802Z,19.70
2023-05-16T05:38:24.500Z,19.70
2023-05-16T05:40:51.293Z,19.70
2023-05-16T05:43:18.011Z,19.70
2023-05-16T05:45:44.817Z,19.70
2023-05-16T05:48:12.568Z,19.70
2023-05-16T05:50:39.354Z,19.70
2023-05-16T05:53:06.295Z,19.60
2023-05-16T05:55:33.009Z,19.70
2023-05-16T05:57:59.675Z,19.70
2023-05-16T06:00:26.394Z,19.70
2023-05-16T06:02:53.500Z,19.80
2023-05-16T06:05:20.566Z,19.80
2023-05-16T06:07:47.458Z,19.70
2023-05-16T06:10:14.099Z,19.70
2023-05-16T06:12:40.683Z,19.70
2023-05-16T06:15:07.990Z,19.80
2023-05-16T06:17:34.730Z,19.70
2023-05-16T06:20:01.917Z,19.70
2023-05-16T06:22:28.688Z,19.70
2023-05-16T06:24:55.266Z,19.70
2023-05-16T06:27:22.392Z,19.70
2023-05-16T06:29:49.005Z,19.70
2023-05-16T06:32:18.432Z,19.70
2023-05-16T06:34:45.012Z,19.60
2023-05-16T06:37:11.617Z,19.60
2023-05-16T06:39:38.209Z,19.60
2023-05-16T06:42:05.033Z,19.60
2023-05-16T06:44:31.674Z,19.60
2023-05-16T06:46:58.767Z,19.60
2023-05-16T06:49:25.751Z,19.60
2023-05-16T06:51:52.429Z,19.60
2023-05-16T06:54:19.079Z,19.50
2023-05-16T06:56:45.766Z,19.60
2023-05-16T06:59:12.528Z,19.60
2023-05-16T07:01:39.316Z,19.60
2023-05-16T07:04:06.372Z,19.60
2023-05-16T07:06:33.457Z,19.60
2023-05-16T07:09:00.552Z,19.50
2023-05-16T07:11:27.206Z,19.60
2023-05-16T07:13:54.032Z,19.60
2023-05-16T07:16:20.854Z,19.60
2023-05-16T07:18:47.628Z,19.60
2023-05-16T07:21:14.282Z,19.60
2023-05-16T07:23:41.593Z,19.60
2023-05-16T07:26:08.330Z,19.60
2023-05-16T07:28:35.058Z,19.60
2023-05-16T07:31:01.751Z,19.60
2023-05-16T07:33:28.399Z,19.60
2023-05-16T07:36:08.031Z,19.70
2023-05-16T07:38:41.944Z,19.70
2023-05-16T07:41:08.591Z,19.70
2023-05-16T07:43:35.514Z,19.60
2023-05-16T07:46:02.949Z,19.70
2023-05-16T07:48:29.680Z,19.70
2023-05-16T07:50:56.430Z,19.70
2023-05-16T07:53:23.151Z,19.60
2023-05-16T07:55:50.284Z,19.60
2023-05-16T07:58:16.968Z,19.70
2023-05-16T08:00:43.725Z,19.70
2023-05-16T08:03:10.616Z,19.70
2023-05-16T08:05:37.509Z,19.70
2023-05-16T08:08:04.414Z,19.70
2023-05-16T08:10:31.134Z,19.70
2023-05-16T08:12:57.789Z,19.70
2023-05-16T08:15:27.019Z,19.70
2023-05-16T08:17:58.834Z,19.70
2023-05-16T08:20:26.284Z,19.70
2023-05-16T08:22:53.283Z,19.70
2023-05-16T08:25:20.455Z,19.70
2023-05-16T08:27:48.915Z,19.70
2023-05-16T08:30:15.607Z,19.70
2023-05-16T08:32:42.362Z,19.70
2023-05-16T08:35:10.829Z,19.80
2023-05-16T12:17:04.581Z,19.90
2023-05-16T12:19:31.594Z,19.80
2023-05-16T12:21:58.851Z,19.70
2023-05-16T12:24:31.201Z,19.70
2023-05-16T12:26:58.900Z,19.70
2023-05-16T12:29:26.490Z,19.70
2023-05-16T12:31:53.796Z,19.80
2023-05-16T12:34:23.061Z,19.80
2023-05-16T12:36:53.887Z,19.80
2023-05-16T12:39:21.114Z,19.80
2023-05-16T12:41:47.780Z,19.80
2023-05-16T12:44:17.683Z,19.80
2023-05-16T12:46:46.387Z,19.80
2023-05-16T12:49:13.873Z,19.90
2023-05-16T12:51:41.080Z,19.90
2023-05-16T12:54:12.178Z,19.90
2023-05-16T12:56:41.770Z,19.90
2023-05-16T12:59:08.726Z,19.90
2023-05-16T13:01:36.210Z,19.90
2023-05-16T13:04:04.119Z,19.90
2023-05-16T13:06:45.024Z,19.90
2023-05-16T13:09:18.501Z,19.90
2023-05-16T13:11:45.154Z,19.90
2023-05-16T13:14:11.762Z,19.90
2023-05-16T13:16:38.816Z,19.90
2023-05-16T13:19:08.462Z,19.80
2023-05-16T13:21:35.296Z,19.80
2023-05-16T13:24:01.912Z,19.90
2023-05-16T13:26:28.560Z,19.80
2023-05-16T13:28:55.361Z,19.80
2023-05-16T13:31:22.483Z,19.80
2023-05-16T13:33:49.313Z,19.90
2023-05-16T13:36:16.000Z,19.90
2023-05-16T13:38:42.705Z,19.80
2023-05-16T13:41:09.368Z,19.90
2023-05-16T13:43:36.035Z,19.80
2023-05-16T13:46:02.759Z,19.90
2023-05-16T13:48:29.687Z,19.80
2023-05-16T13:50:56.731Z,19.80
2023-05-16T13:53:23.425Z,19.80
2023-05-16T13:55:50.090Z,19.80
2023-05-16T13:58:16.867Z,19.80
2023-05-16T14:00:46.239Z,19.80
2023-05-16T14:03:13.281Z,19.80
2023-05-16T14:05:40.473Z,19.80
2023-05-16T14:08:07.684Z,19.80
2023-05-16T14:10:34.364Z,19.80
2023-05-16T14:13:01.002Z,19.80
2023-05-16T14:15:27.849Z,19.80
2023-05-16T14:17:54.659Z,19.80
2023-05-16T14:20:21.528Z,19.80
2023-05-16T14:22:48.213Z,19.80
2023-05-16T14:25:14.861Z,19.80
2023-05-16T14:27:41.700Z,19.80
2023-05-16T14:30:09.427Z,19.80
2023-05-16T14:32:36.306Z,19.80
2023-05-16T14:35:05.218Z,19.80
2023-05-16T14:37:31.915Z,19.80
2023-05-16T14:39:59.643Z,19.80
2023-05-16T14:42:26.458Z,19.80
2023-05-16T14:44:53.134Z,19.80
2023-05-16T14:47:19.794Z,19.80
2023-05-16T14:49:46.510Z,19.80
2023-05-16T14:52:13.304Z,19.80
2023-05-16T14:54:39.993Z,19.80
2023-05-16T14:57:07.283Z,19.90
2023-05-16T14:59:33.962Z,19.80
2023-05-16T15:02:01.001Z,19.80
2023-05-16T15:04:28.734Z,19.80
2023-05-16T15:06:55.868Z,19.80
2023-05-16T15:09:22.591Z,19.80
2023-05-16T15:11:49.266Z,19.80
2023-05-16T15:14:16.011Z,19.80
2023-05-16T15:16:43.074Z,19.80
2023-05-16T15:19:09.924Z,19.80
2023-05-16T15:21:36.712Z,19.80
2023-05-16T15:24:03.527Z,19.80
2023-05-16T15:26:30.896Z,19.80
2023-05-16T15:28:57.697Z,19.80
2023-05-16T15:31:24.405Z,19.90
2023-05-16T15:33:51.270Z,19.90
2023-05-16T15:36:18.078Z,19.80
2023-05-16T15:38:45.637Z,19.80
2023-05-16T15:41:31.281Z,19.80
2023-05-16T15:44:00.487Z,19.80
2023-05-16T15:46:27.487Z,19.80
2023-05-16T15:48:54.158Z,19.80
2023-05-16T15:51:21.156Z,19.80
2023-05-16T15:53:48.204Z,19.80
2023-05-16T15:56:14.910Z,19.80
2023-05-16T15:58:41.758Z,19.80
2023-05-16T16:01:08.519Z,19.80
2023-05-16T16:03:35.413Z,19.80
2023-05-16T16:06:02.270Z,19.80
2023-05-16T16:08:28.926Z,19.80
2023-05-16T16:10:56.228Z,19.80
2023-05-16T16:13:24.184Z,19.80
2023-05-16T16:15:50.984Z,19.80
2023-05-16T16:18:17.681Z,19.80
2023-05-16T16:20:44.496Z,19.80
2023-05-16T16:23:11.423Z,19.80
2023-05-16T16:25:38.218Z,19.80
2023-05-16T16:28:05.087Z,19.80
2023-05-16T16:30:31.789Z,19.80
2023-05-16T16:32:58.551Z,19.80
2023-05-16T16:35:26.752Z,19.80
2023-05-16T16:38:05.647Z,19.80
2023-05-16T16:40:33.519Z,19.80
2023-05-16T16:43:01.225Z,19.80
2023-05-16T16:45:28.314Z,19.70
2023-05-16T16:47:55.517Z,19.80
2023-05-16T16:50:22.275Z,19.80
2023-05-16T16:52:48.960Z,19.80
2023-05-16T16:55:15.930Z,19.70
2023-05-16T16:57:43.052Z,19.70
2023-05-16T17:00:11.477Z,19.70
2023-05-16T17:02:38.317Z,19.70
2023-05-16T17:05:06.458Z,19.70
2023-05-16T17:07:33.253Z,19.70
2023-05-16T17:10:01.019Z,19.70
2023-05-16T17:12:28.664Z,19.70
2023-05-16T17:14:58.268Z,19.70
2023-05-16T17:17:25.630Z,19.70
2023-05-16T17:19:52.760Z,19.70
2023-05-16T17:22:21.233Z,19.70
2023-05-16T17:24:48.009Z,19.70
2023-05-16T17:27:14.873Z,19.70
2023-05-16T17:29:41.524Z,19.70
2023-05-16T17:32:08.300Z,19.70
2023-05-16T17:34:35.828Z,19.70
2023-05-16T17:37:04.271Z,19.70
2023-05-16T17:39:32.256Z,19.70
2023-05-16T17:41:59.165Z,19.70
2023-05-16T17:44:26.010Z,19.70
2023-05-16T17:46:53.541Z,19.70
2023-05-16T17:49:21.320Z,19.70
2023-05-16T17:51:49.817Z,19.70
2023-05-16T17:54:18.291Z,19.70
2023-05-16T17:56:45.953Z,19.70
2023-05-16T17:59:15.893Z,19.70
2023-05-16T18:01:43.416Z,19.70
2023-05-16T18:04:10.631Z,19.70
2023-05-16T18:06:38.132Z,19.70
2023-05-16T18:09:06.924Z,19.60
2023-05-16T18:11:34.896Z,19.70
2023-05-16T18:14:02.028Z,19.60
2023-05-16T18:16:29.812Z,19.60
2023-05-16T18:18:59.544Z,19.60
2023-05-16T18:21:26.474Z,19.60
2023-05-16T18:23:54.686Z,19.60
2023-05-16T18:26:22.246Z,19.60
2023-05-16T18:28:49.046Z,19.60
2023-05-16T18:31:16.272Z,19.60
2023-05-16T18:33:43.047Z,19.60
2023-05-16T18:36:09.794Z,19.60
2023-05-16T18:38:36.480Z,19.60
2023-05-16T18:41:03.372Z,19.60
2023-05-16T18:43:30.713Z,19.60
2023-05-16T18:45:57.808Z,19.60
2023-05-16T18:48:24.528Z,19.60
2023-05-16T18:50:51.306Z,19.60
2023-05-16T18:53:17.995Z,19.60
2023-05-16T18:55:44.802Z,19.60
2023-05-16T18:58:11.626Z,19.60
2023-05-16T19:00:38.280Z,19.60
2023-05-16T19:03:05.276Z,19.60
2023-05-16T19:05:32.447Z,19.50
2023-05-16T19:07:59.390Z,19.60
2023-05-16T19:10:26.307Z,19.50
2023-05-16T19:12:53.091Z,19.60
2023-05-16T19:15:19.767Z,19.60
2023-05-16T19:17:47.107Z,19.60
2023-05-16T19:20:13.918Z,19.60
2023-05-16T19:22:40.834Z,19.60
2023-05-16T19:25:07.838Z,19.60
2023-05-16T19:27:35.496Z,19.50
2023-05-16T19:30:02.160Z,19.50
2023-05-16T19:32:28.822Z,19.50
2023-05-16T19:34:55.468Z,19.50
2023-05-16T19:37:22.151Z,19.50
2023-05-16T19:39:48.813Z,19.60
2023-05-16T19:42:15.607Z,19.50
2023-05-16T19:44:42.691Z,19.50
2023-05-16T19:47:09.383Z,19.50
2023-05-16T19:49:36.270Z,19.50
2023-05-16T19:52:04.645Z,19.50
2023-05-16T19:54:31.320Z,19.50
2023-05-16T19:56:57.961Z,19.50
2023-05-16T19:59:24.639Z,19.50
2023-05-16T20:01:51.340Z,19.50
2023-05-16T20:04:18.113Z,19.50
2023-05-16T20:06:44.834Z,19.50
2023-05-16T20:09:11.596Z,19.50
2023-05-16T20:11:38.403Z,19.50
2023-05-16T20:14:05.094Z,19.50
2023-05-16T20:16:32.122Z,19.50
2023-05-16T20:18:58.839Z,19.50
2023-05-16T20:21:25.723Z,19.50
2023-05-16T20:23:52.391Z,19.50
2023-05-16T20:26:19.150Z,19.50
2023-05-16T20:28:48.015Z,19.50
2023-05-16T20:31:14.649Z,19.40
2023-05-16T20:33:41.314Z,19.50
2023-05-16T20:36:08.020Z,19.50
2023-05-16T20:38:34.656Z,19.40
2023-05-16T20:41:03.099Z,19.50
2023-05-16T20:43:29.805Z,19.40
2023-05-16T20:45:56.424Z,19.50
2023-05-16T20:48:23.253Z,19.40
2023-05-16T20:50:52.520Z,19.40
2023-05-16T20:53:19.152Z,19.40
2023-05-16T20:55:45.925Z,19.50
2023-05-16T20:58:12.772Z,19.40
2023-05-16T21:00:39.449Z,19.40
2023-05-16T21:03:06.194Z,19.40
2023-05-16T21:05:33.807Z,19.40
2023-05-16T21:08:00.618Z,19.40
2023-05-16T21:10:27.277Z,19.40
2023-05-16T21:12:53.934Z,19.40
2023-05-16T21:15:23.243Z,19.40
2023-05-16T21:17:51.874Z,19.40
2023-05-16T21:20:21.056Z,19.40
2023-05-16T21:22:47.793Z,19.40
2023-05-16T21:25:14.420Z,19.40
2023-05-16T21:27:41.154Z,19.40
2023-05-16T21:30:08.361Z,19.40
2023-05-16T21:32:35.071Z,19.30
2023-05-16T21:35:04.112Z,19.40
2023-05-16T21:37:30.766Z,19.40
2023-05-16T21:39:57.499Z,19.40
2023-05-16T21:42:24.210Z,19.40
2023-05-16T21:44:50.877Z,19.40
2023-05-16T21:47:17.515Z,19.30
2023-05-16T21:49:44.275Z,19.40
2023-05-16T21:52:11.107Z,19.40
2023-05-16T21:54:37.755Z,19.40
2023-05-16T21:57:04.556Z,19.30
2023-05-16T21:59:31.231Z,19.40
2023-05-16T22:01:57.857Z,19.40
2023-05-16T22:04:24.759Z,19.30
2023-05-16T22:06:51.529Z,19.40
2023-05-16T22:09:18.279Z,19.40
2023-05-16T22:11:44.921Z,19.30
2023-05-16T22:14:11.652Z,19.40
2023-05-16T22:16:38.308Z,19.30
2023-05-16T22:19:05.008Z,19.40
2023-05-16T22:21:31.857Z,19.30
2023-05-16T22:23:58.492Z,19.30
2023-05-16T22:26:25.939Z,19.30
2023-05-16T22:28:52.642Z,19.30
2023-05-16T22:31:19.269Z,19.30
2023-05-16T22:33:45.953Z,19.30
2023-05-16T22:36:12.680Z,19.30
2023-05-16T22:38:39.306Z,19.30
2023-05-16T22:41:06.292Z,19.30
2023-05-16T22:43:32.993Z,19.30
2023-05-16T22:46:02.200Z,19.30
2023-05-16T22:48:29.875Z,19.30
2023-05-16T22:50:57.189Z,19.30
2023-05-16T22:53:23.932Z,19.30
2023-05-16T22:55:50.769Z,19.30
2023-05-16T22:58:17.797Z,19.30
2023-05-16T23:00:44.513Z,19.30
2023-05-16T23:03:11.391Z,19.30
2023-05-16T23:05:38.116Z,19.30
2023-05-16T23:08:05.097Z,19.30
2023-05-16T23:10:32.259Z,19.30
2023-05-16T23:12:59.010Z,19.30
2023-05-16T23:15:25.907Z,19.30
2023-05-16T23:17:52.729Z,19.30
2023-05-16T23:20:19.502Z,19.30
2023-05-16T23:22:46.222Z,19.30
2023-05-16T23:25:12.911Z,19.30
2023-05-16T23:27:39.623Z,19.30
2023-05-16T23:30:08.979Z,19.30
2023-05-16T23:32:36.463Z,19.30
2023-05-16T23:35:03.559Z,19.30
2023-05-16T23:37:30.950Z,19.30
2023-05-16T23:39:58.332Z,19.30
2023-05-16T23:42:25.039Z,19.30
2023-05-16T23:44:51.683Z,19.30
2023-05-16T23:47:18.331Z,19.30
2023-05-16T23:49:44.983Z,19.20
2023-05-16T23:52:11.733Z,19.20
2023-05-16T23:54:38.377Z,19.20
2023-05-16T23:57:05.348Z,19.20
2023-05-16T23:59:32.003Z,19.20
